Airfield :
LOGIN :

Register | Disclaimer

   EN    FR    IT 

 










Legend :    VFR   Marginal VFR   IFR   Intensive IFR   Very Intensive IFR
Visi :
Ceiling :
>= 8 km
>= 3000ft
5 to 8 km
1000 to 3000 ft
1500m to 5 km
500 to 1000 ft
800 to 1500m
200 to 500 ft
< 800m
< 200 ft
Symbols :   Thunderstorms  Fog  Heavy snow  Heavy precipitations  Wind > 20 kt
SIGMETs :     Misc.  Thunderstorms  Icing  Turbulence  Mountain Waves  Volcanic Ashes







- Airport Elevation : 132 ft


EGXE - RAF Leeming

CURRENT METAR :
  • 191550Z 26010KT CAVOK 16/06 Q1019 BLU NOSIG

EXPIRED METARs :
  • 191450Z 27013KT 9999 FEW034 SCT050 16/06 Q1019 BLU NOSIG
  • 191350Z 27010KT CAVOK 15/08 Q1020 BLU NOSIG

TAF TAF EGXE
Valid from the 19 at 15:00 until the 19 at 18:00 UTC


191359Z 1915/1918 26007KT CAVOK
No reported NOTAMs for that airfield.



MET'MAP, your aeronautical weather chart ! - Copyright ORBIFLY December 2007 - Disclaimer

ORBIFLY MET'MAP TEAM :

Programming & Development : Alexandra Zaïnal
Concept & Development : Baudouin d'Aumeries
Co-Development & Prog : Marc-Olivier Méhu
Technical & hardware support : Manuel Goepfert

Contact : metmap@orbifly.com




SOURCES & CREDITS :

   NOAA